createdAt,value
2023-06-05T00:00:12.232Z,401.00
2023-06-05T00:01:12.243Z,401.00
2023-06-05T00:02:12.326Z,402.00
2023-06-05T00:03:12.257Z,401.00
2023-06-05T00:04:12.376Z,399.00
2023-06-05T00:05:12.207Z,397.00
2023-06-05T00:06:12.211Z,394.00
2023-06-05T00:07:12.179Z,394.00
2023-06-05T00:08:12.185Z,396.00
2023-06-05T00:09:12.175Z,397.00
2023-06-05T00:10:12.151Z,397.00
2023-06-05T00:11:12.182Z,398.00
2023-06-05T00:12:12.156Z,397.00
2023-06-05T00:13:12.140Z,394.00
2023-06-05T00:14:12.148Z,392.00
2023-06-05T00:15:12.131Z,392.00
2023-06-05T00:16:12.184Z,394.00
2023-06-05T00:17:12.103Z,397.00
2023-06-05T00:18:12.197Z,397.00
2023-06-05T00:19:12.291Z,398.00
2023-06-05T00:20:12.089Z,395.00
2023-06-05T00:21:12.132Z,396.00
2023-06-05T00:22:12.085Z,398.00
2023-06-05T00:23:12.079Z,397.00
2023-06-05T00:24:12.072Z,397.00
2023-06-05T00:25:12.134Z,396.00
2023-06-05T00:26:12.069Z,396.00
2023-06-05T00:27:12.046Z,399.00
2023-06-05T00:28:12.049Z,401.00
2023-06-05T00:29:12.062Z,403.00
2023-06-05T00:30:12.024Z,402.00
2023-06-05T00:31:12.123Z,403.00
2023-06-05T00:32:12.003Z,401.00
2023-06-05T00:33:12.031Z,400.00
2023-06-05T00:34:12.004Z,402.00
2023-06-05T00:35:11.989Z,402.00
2023-06-05T00:36:11.989Z,401.00
2023-06-05T00:37:11.972Z,401.00
2023-06-05T00:38:11.958Z,404.00
2023-06-05T00:39:11.967Z,402.00
2023-06-05T00:40:11.954Z,401.00
2023-06-05T00:41:11.979Z,401.00
2023-06-05T00:42:11.956Z,402.00
2023-06-05T00:43:11.946Z,401.00
2023-06-05T00:44:11.921Z,400.00
2023-06-05T00:45:11.935Z,398.00
2023-06-05T00:46:12.009Z,398.00
2023-06-05T00:47:11.919Z,397.00
2023-06-05T00:48:11.952Z,398.00
2023-06-05T00:49:11.910Z,400.00
2023-06-05T00:50:11.890Z,401.00
2023-06-05T00:51:11.928Z,398.00
2023-06-05T00:52:11.869Z,399.00
2023-06-05T00:53:11.872Z,398.00
2023-06-05T00:54:11.941Z,399.00
2023-06-05T00:55:11.858Z,400.00
2023-06-05T00:56:11.842Z,400.00
2023-06-05T00:57:11.857Z,399.00
2023-06-05T00:58:11.844Z,401.00
2023-06-05T00:59:11.845Z,401.00
2023-06-05T01:00:11.822Z,402.00
2023-06-05T01:01:11.959Z,401.00
2023-06-05T01:02:11.861Z,399.00
2023-06-05T01:03:11.958Z,398.00
2023-06-05T01:04:11.802Z,398.00
2023-06-05T01:05:11.798Z,398.00
2023-06-05T01:06:11.803Z,398.00
2023-06-05T01:07:11.804Z,399.00
2023-06-05T01:08:11.777Z,400.00
2023-06-05T01:09:11.800Z,400.00
2023-06-05T01:10:11.789Z,405.00
2023-06-05T01:11:11.764Z,405.00
2023-06-05T01:12:11.754Z,405.00
2023-06-05T01:13:11.753Z,403.00
2023-06-05T01:14:11.739Z,403.00
2023-06-05T01:15:11.746Z,402.00
2023-06-05T01:16:11.758Z,402.00
2023-06-05T01:17:11.839Z,402.00
2023-06-05T01:18:11.721Z,401.00
2023-06-05T01:19:11.700Z,401.00
2023-06-05T01:20:11.693Z,402.00
2023-06-05T01:21:11.690Z,405.00
2023-06-05T01:22:11.689Z,405.00
2023-06-05T01:23:11.674Z,403.00
2023-06-05T01:24:11.670Z,403.00
2023-06-05T01:25:11.660Z,403.00
2023-06-05T01:26:11.661Z,404.00
2023-06-05T01:27:11.665Z,404.00
2023-06-05T01:28:11.647Z,405.00
2023-06-05T01:29:11.653Z,406.00
2023-06-05T01:30:11.631Z,404.00
2023-06-05T01:31:11.792Z,404.00
2023-06-05T01:32:11.615Z,404.00
2023-06-05T01:33:11.666Z,402.00
2023-06-05T01:34:11.598Z,403.00
2023-06-05T01:35:11.610Z,403.00
2023-06-05T01:36:11.581Z,402.00
2023-06-05T01:37:11.588Z,402.00
2023-06-05T01:38:11.575Z,401.00
2023-06-05T01:39:11.566Z,400.00
2023-06-05T01:40:11.571Z,402.00
2023-06-05T01:41:11.586Z,401.00
2023-06-05T01:42:11.556Z,400.00
2023-06-05T01:43:11.548Z,400.00
2023-06-05T01:44:11.529Z,402.00
2023-06-05T01:45:11.534Z,405.00
2023-06-05T01:46:11.523Z,409.00
2023-06-05T01:47:11.521Z,409.00
2023-06-05T01:48:11.524Z,408.00
2023-06-05T01:49:11.510Z,408.00
2023-06-05T01:50:11.486Z,408.00
2023-06-05T01:51:11.488Z,410.00
2023-06-05T01:52:11.485Z,410.00
2023-06-05T01:53:11.479Z,408.00
2023-06-05T01:54:11.478Z,406.00
2023-06-05T01:55:11.461Z,406.00
2023-06-05T01:56:11.460Z,408.00
2023-06-05T01:57:11.453Z,411.00
2023-06-05T01:58:11.441Z,411.00
2023-06-05T01:59:11.420Z,410.00
2023-06-05T02:00:11.437Z,410.00
2023-06-05T02:01:11.424Z,406.00
2023-06-05T02:02:11.443Z,408.00
2023-06-05T02:03:11.533Z,409.00
2023-06-05T02:04:11.487Z,409.00
2023-06-05T02:05:11.407Z,409.00
2023-06-05T02:06:11.390Z,411.00
2023-06-05T02:07:11.374Z,413.00
2023-06-05T02:08:11.373Z,415.00
2023-06-05T02:09:11.376Z,418.00
2023-06-05T02:10:11.374Z,419.00
2023-06-05T02:11:11.455Z,414.00
2023-06-05T02:12:11.390Z,410.00
2023-06-05T02:13:11.340Z,412.00
2023-06-05T02:14:11.319Z,414.00
2023-06-05T02:15:11.323Z,411.00
2023-06-05T02:16:11.327Z,410.00
2023-06-05T02:17:11.299Z,411.00
2023-06-05T02:18:11.297Z,412.00
2023-06-05T02:19:11.299Z,413.00
2023-06-05T02:20:11.292Z,412.00
2023-06-05T02:21:11.360Z,410.00
2023-06-05T02:22:11.265Z,410.00
2023-06-05T02:23:11.250Z,413.00
2023-06-05T02:24:11.300Z,412.00
2023-06-05T02:25:11.252Z,415.00
2023-06-05T02:26:11.251Z,417.00
2023-06-05T02:27:11.248Z,417.00
2023-06-05T02:28:11.231Z,413.00
2023-06-05T02:29:11.222Z,413.00
2023-06-05T02:30:11.214Z,413.00
2023-06-05T02:31:11.515Z,415.00
2023-06-05T02:32:11.211Z,415.00
2023-06-05T02:33:11.179Z,410.00
2023-06-05T02:34:11.203Z,411.00
2023-06-05T02:35:11.168Z,409.00
2023-06-05T02:36:11.171Z,407.00
2023-06-05T02:37:11.175Z,408.00
2023-06-05T02:38:11.151Z,406.00
2023-06-05T02:39:11.143Z,409.00
2023-06-05T02:40:11.137Z,406.00
2023-06-05T02:41:11.212Z,405.00
2023-06-05T02:42:11.129Z,406.00
2023-06-05T02:43:11.114Z,404.00
2023-06-05T02:44:11.108Z,404.00
2023-06-05T02:45:11.119Z,406.00
2023-06-05T02:46:11.203Z,408.00
2023-06-05T02:47:11.144Z,406.00
2023-06-05T02:48:11.085Z,408.00
2023-06-05T02:49:11.096Z,407.00
2023-06-05T02:50:11.072Z,409.00
2023-06-05T02:51:11.055Z,407.00
2023-06-05T02:52:11.057Z,410.00
2023-06-05T02:53:11.044Z,409.00
2023-06-05T02:54:11.667Z,411.00
2023-06-05T02:55:11.041Z,410.00
2023-06-05T02:56:11.035Z,408.00
2023-06-05T02:57:11.045Z,411.00
2023-06-05T02:58:11.001Z,411.00
2023-06-05T02:59:10.995Z,410.00
2023-06-05T03:00:11.009Z,413.00
2023-06-05T03:01:11.178Z,417.00
2023-06-05T03:02:10.996Z,415.00
2023-06-05T03:03:11.046Z,414.00
2023-06-05T03:04:10.979Z,410.00
2023-06-05T03:05:10.963Z,409.00
2023-06-05T03:06:10.955Z,408.00
2023-06-05T03:07:10.953Z,406.00
2023-06-05T03:08:10.965Z,407.00
2023-06-05T03:09:10.949Z,407.00
2023-06-05T03:10:10.921Z,408.00
2023-06-05T03:11:11.266Z,407.00
2023-06-05T03:12:10.937Z,409.00
2023-06-05T03:13:10.914Z,409.00
2023-06-05T03:14:10.955Z,409.00
2023-06-05T03:15:10.925Z,410.00
2023-06-05T03:16:10.990Z,410.00
2023-06-05T03:17:10.947Z,413.00
2023-06-05T03:18:10.996Z,413.00
2023-06-05T03:19:10.940Z,415.00
2023-06-05T03:20:11.022Z,416.00
2023-06-05T03:21:11.017Z,415.00
2023-06-05T03:22:10.975Z,416.00
2023-06-05T03:23:10.987Z,413.00
2023-06-05T03:24:10.996Z,416.00
2023-06-05T03:25:11.004Z,417.00
2023-06-05T03:26:11.023Z,418.00
2023-06-05T03:27:11.000Z,421.00
2023-06-05T03:28:11.011Z,419.00
2023-06-05T03:29:11.029Z,419.00
2023-06-05T03:30:11.033Z,422.00
2023-06-05T03:31:11.037Z,421.00
2023-06-05T03:32:11.050Z,421.00
2023-06-05T03:33:11.162Z,421.00
2023-06-05T03:34:11.088Z,419.00
2023-06-05T03:35:11.053Z,418.00
2023-06-05T03:36:11.066Z,421.00
2023-06-05T03:37:11.072Z,422.00
2023-06-05T03:38:11.097Z,423.00
2023-06-05T03:39:11.118Z,423.00
2023-06-05T03:40:11.201Z,425.00
2023-06-05T03:41:11.311Z,422.00
2023-06-05T03:42:11.135Z,422.00
2023-06-05T03:43:11.162Z,420.00
2023-06-05T03:44:11.154Z,420.00
2023-06-05T03:45:11.161Z,420.00
2023-06-05T03:46:11.211Z,421.00
2023-06-05T03:47:11.204Z,421.00
2023-06-05T03:48:11.201Z,423.00
2023-06-05T03:49:11.225Z,426.00
2023-06-05T03:50:11.239Z,426.00
2023-06-05T03:51:11.345Z,425.00
2023-06-05T03:52:11.251Z,427.00
2023-06-05T03:53:11.265Z,427.00
2023-06-05T03:54:11.301Z,426.00
2023-06-05T03:55:11.280Z,425.00
2023-06-05T03:56:11.304Z,423.00
2023-06-05T03:57:11.303Z,423.00
2023-06-05T03:58:11.309Z,421.00
2023-06-05T03:59:11.322Z,417.00
2023-06-05T04:00:11.428Z,416.00
2023-06-05T04:01:11.529Z,417.00
2023-06-05T04:02:11.461Z,416.00
2023-06-05T04:03:11.457Z,415.00
2023-06-05T04:04:11.425Z,416.00
2023-06-05T04:05:11.397Z,415.00
2023-06-05T04:06:11.428Z,415.00
2023-06-05T04:07:11.453Z,415.00
2023-06-05T04:08:11.451Z,414.00
2023-06-05T04:09:11.462Z,414.00
2023-06-05T04:10:11.486Z,414.00
2023-06-05T04:11:11.490Z,411.00
2023-06-05T04:12:11.523Z,412.00
2023-06-05T04:13:11.531Z,414.00
2023-06-05T04:14:11.527Z,415.00
2023-06-05T04:15:11.621Z,415.00
2023-06-05T04:16:11.596Z,413.00
2023-06-05T04:17:11.645Z,412.00
2023-06-05T04:18:11.612Z,412.00
2023-06-05T04:19:11.597Z,412.00
2023-06-05T04:20:11.642Z,413.00
2023-06-05T04:21:11.621Z,415.00
2023-06-05T04:22:11.650Z,417.00
2023-06-05T04:23:11.660Z,417.00
2023-06-05T04:24:11.774Z,418.00
2023-06-05T04:25:11.706Z,418.00
2023-06-05T04:26:11.716Z,417.00
2023-06-05T04:27:11.740Z,415.00
2023-06-05T04:28:11.763Z,414.00
2023-06-05T04:29:11.763Z,414.00
2023-06-05T04:30:11.785Z,415.00
2023-06-05T04:31:11.998Z,416.00
2023-06-05T04:32:11.820Z,418.00
2023-06-05T04:33:11.834Z,419.00
2023-06-05T04:34:11.847Z,420.00
2023-06-05T04:35:11.857Z,421.00
2023-06-05T04:36:11.862Z,422.00
2023-06-05T04:37:11.897Z,420.00
2023-06-05T04:38:11.910Z,420.00
2023-06-05T04:39:11.925Z,420.00
2023-06-05T04:40:11.942Z,418.00
2023-06-05T04:41:11.926Z,415.00
2023-06-05T04:42:15.536Z,416.00
2023-06-05T04:43:11.934Z,415.00
2023-06-05T04:44:11.928Z,415.00
2023-06-05T04:45:11.945Z,415.00
2023-06-05T04:46:11.969Z,414.00
2023-06-05T04:47:11.914Z,414.00
2023-06-05T04:48:11.939Z,413.00
2023-06-05T04:49:11.897Z,414.00
2023-06-05T04:50:11.901Z,413.00
2023-06-05T04:51:11.879Z,413.00
2023-06-05T04:52:11.882Z,412.00
2023-06-05T04:53:11.906Z,410.00
2023-06-05T04:54:11.877Z,413.00
2023-06-05T04:55:12.719Z,413.00
2023-06-05T04:56:12.118Z,411.00
2023-06-05T04:57:12.096Z,411.00
2023-06-05T04:58:12.083Z,410.00
2023-06-05T04:59:12.075Z,412.00
2023-06-05T05:00:12.067Z,414.00
2023-06-05T05:01:12.085Z,417.00
2023-06-05T05:02:12.178Z,419.00
2023-06-05T05:03:12.123Z,419.00
2023-06-05T05:04:12.178Z,421.00
2023-06-05T05:05:12.147Z,422.00
2023-06-05T05:06:12.150Z,422.00
2023-06-05T05:07:12.185Z,422.00
2023-06-05T05:08:12.199Z,419.00
2023-06-05T05:09:12.214Z,420.00
2023-06-05T05:10:12.221Z,423.00
2023-06-05T05:11:12.249Z,422.00
2023-06-05T05:12:12.236Z,422.00
2023-06-05T05:13:12.267Z,423.00
2023-06-05T05:14:12.274Z,421.00
2023-06-05T05:15:12.292Z,421.00
2023-06-05T05:16:12.329Z,419.00
2023-06-05T05:17:12.338Z,421.00
2023-06-05T05:18:12.332Z,417.00
2023-06-05T05:19:12.390Z,416.00
2023-06-05T05:20:12.381Z,419.00
2023-06-05T05:21:12.418Z,419.00
2023-06-05T05:22:12.429Z,420.00
2023-06-05T05:23:12.442Z,424.00
2023-06-05T05:24:12.470Z,422.00
2023-06-05T05:25:12.523Z,403.00
2023-06-05T05:26:12.556Z,408.00
2023-06-05T05:27:12.583Z,420.00
2023-06-05T05:28:12.604Z,430.00
2023-06-05T05:29:12.585Z,403.00
2023-06-05T05:30:12.630Z,418.00
2023-06-05T05:31:12.824Z,429.00
2023-06-05T05:32:12.767Z,417.00
2023-06-05T05:33:12.704Z,408.00
2023-06-05T05:34:12.707Z,430.00
2023-06-05T05:35:12.726Z,443.00
2023-06-05T05:36:12.756Z,423.00
2023-06-05T05:37:12.809Z,421.00
2023-06-05T05:38:12.847Z,424.00
2023-06-05T05:39:12.871Z,432.00
2023-06-05T05:40:12.881Z,436.00
2023-06-05T05:41:12.900Z,441.00
2023-06-05T05:42:12.922Z,456.00
2023-06-05T05:43:12.953Z,485.00
2023-06-05T05:44:13.019Z,493.00
2023-06-05T05:45:13.053Z,492.00
2023-06-05T05:46:13.096Z,495.00
2023-06-05T05:47:13.189Z,494.00
2023-06-05T05:48:13.057Z,493.00
2023-06-05T05:49:13.093Z,495.00
2023-06-05T05:50:13.167Z,496.00
2023-06-05T05:51:13.230Z,496.00
2023-06-05T05:52:13.285Z,490.00
2023-06-05T05:53:13.330Z,485.00
2023-06-05T05:54:13.358Z,481.00
2023-06-05T05:55:15.132Z,478.00
2023-06-05T05:56:13.430Z,474.00
2023-06-05T05:57:13.464Z,470.00
2023-06-05T05:58:13.465Z,465.00
2023-06-05T05:59:13.491Z,462.00
2023-06-05T06:00:13.587Z,457.00
2023-06-05T06:01:13.526Z,456.00
2023-06-05T06:02:13.583Z,452.00
2023-06-05T06:03:13.628Z,447.00
2023-06-05T06:04:13.588Z,446.00
2023-06-05T06:05:13.690Z,440.00
2023-06-05T06:06:13.599Z,438.00
2023-06-05T06:07:13.558Z,439.00
2023-06-05T06:08:13.564Z,438.00
2023-06-05T06:09:13.555Z,435.00
2023-06-05T06:10:13.570Z,436.00
2023-06-05T06:11:13.578Z,434.00
2023-06-05T06:12:13.580Z,433.00
2023-06-05T06:13:13.578Z,430.00
2023-06-05T06:14:13.597Z,431.00
2023-06-05T06:15:13.592Z,430.00
2023-06-05T06:16:13.590Z,430.00
2023-06-05T06:17:13.582Z,428.00
2023-06-05T06:18:13.683Z,425.00
2023-06-05T06:19:13.623Z,423.00
2023-06-05T06:20:13.601Z,421.00
2023-06-05T06:21:13.582Z,421.00
2023-06-05T06:22:13.619Z,423.00
2023-06-05T06:23:13.581Z,423.00
2023-06-05T06:24:13.593Z,427.00
2023-06-05T06:25:13.609Z,426.00
2023-06-05T06:26:13.594Z,426.00
2023-06-05T06:28:13.590Z,425.00
2023-06-05T06:29:13.580Z,423.00
2023-06-05T06:30:13.592Z,421.00
2023-06-05T06:31:13.604Z,424.00
2023-06-05T06:32:13.706Z,426.00
2023-06-05T06:33:13.553Z,426.00
2023-06-05T06:34:13.540Z,423.00
2023-06-05T06:35:13.532Z,423.00
2023-06-05T06:36:13.553Z,421.00
2023-06-05T06:37:13.712Z,424.00
2023-06-05T06:38:13.514Z,427.00
2023-06-05T06:39:13.487Z,431.00
2023-06-05T06:40:13.504Z,439.00
2023-06-05T06:41:13.492Z,480.00
2023-06-05T06:42:13.726Z,480.00
2023-06-05T06:43:13.473Z,492.00
2023-06-05T06:44:13.452Z,533.00
2023-06-05T06:45:13.510Z,512.00
2023-06-05T06:46:13.430Z,499.00
2023-06-05T06:47:13.468Z,487.00
2023-06-05T06:48:13.523Z,482.00
2023-06-05T06:49:13.503Z,462.00
2023-06-05T06:50:13.414Z,497.00
2023-06-05T06:51:13.409Z,495.00
2023-06-05T06:52:13.404Z,503.00
2023-06-05T06:53:13.400Z,509.00
2023-06-05T06:54:13.397Z,510.00
2023-06-05T06:55:13.391Z,509.00
2023-06-05T06:56:13.370Z,507.00
2023-06-05T06:57:13.381Z,502.00
2023-06-05T06:58:13.364Z,499.00
2023-06-05T06:59:13.353Z,508.00
2023-06-05T07:00:13.347Z,513.00
2023-06-05T07:01:13.427Z,513.00
2023-06-05T07:02:13.383Z,512.00
2023-06-05T07:03:13.377Z,511.00
2023-06-05T07:04:13.326Z,508.00
2023-06-05T07:05:13.314Z,509.00
2023-06-05T07:06:13.309Z,512.00
2023-06-05T07:07:13.317Z,513.00
2023-06-05T07:08:13.326Z,516.00
2023-06-05T07:09:13.295Z,514.00
2023-06-05T07:10:13.295Z,518.00
2023-06-05T07:11:13.270Z,510.00
2023-06-05T07:12:13.270Z,508.00
2023-06-05T07:13:13.277Z,513.00
2023-06-05T07:14:13.276Z,520.00
2023-06-05T07:15:13.273Z,520.00
2023-06-05T07:16:13.290Z,528.00
2023-06-05T07:17:13.263Z,566.00
2023-06-05T07:18:13.238Z,534.00
2023-06-05T07:19:13.255Z,521.00
2023-06-05T07:20:13.266Z,511.00
2023-06-05T07:21:13.228Z,515.00
2023-06-05T07:22:13.215Z,517.00
2023-06-05T07:23:13.219Z,514.00
2023-06-05T07:24:13.365Z,515.00
2023-06-05T07:25:13.204Z,516.00
2023-06-05T07:26:13.203Z,539.00
2023-06-05T07:27:13.256Z,540.00
2023-06-05T07:28:13.182Z,483.00
2023-06-05T07:29:13.179Z,615.00
2023-06-05T07:30:13.152Z,591.00
2023-06-05T07:31:13.226Z,610.00
2023-06-05T07:32:13.251Z,640.00
2023-06-05T07:33:29.194Z,686.00
2023-06-05T07:34:14.313Z,597.00
2023-06-05T07:35:13.278Z,664.00
2023-06-05T07:36:13.257Z,665.00
2023-06-05T07:37:13.327Z,663.00
2023-06-05T07:38:13.250Z,670.00
2023-06-05T07:39:13.255Z,673.00
2023-06-05T07:40:13.243Z,680.00
2023-06-05T07:41:13.217Z,724.00
2023-06-05T07:42:14.472Z,791.00
2023-06-05T07:43:13.197Z,788.00
2023-06-05T07:44:13.230Z,785.00
2023-06-05T07:45:13.266Z,782.00
2023-06-05T07:46:13.356Z,651.00
2023-06-05T07:47:13.769Z,669.00
2023-06-05T07:48:13.372Z,670.00
2023-06-05T07:49:13.381Z,737.00
2023-06-05T07:50:13.431Z,749.00
2023-06-05T07:51:13.476Z,757.00
2023-06-05T07:52:13.762Z,669.00
2023-06-05T07:53:13.546Z,704.00
2023-06-05T07:54:13.578Z,764.00
2023-06-05T07:55:13.564Z,742.00
2023-06-05T07:56:13.607Z,729.00
2023-06-05T07:57:13.745Z,722.00
2023-06-05T07:58:13.662Z,677.00
2023-06-05T07:59:13.685Z,774.00
2023-06-05T08:00:13.717Z,638.00
2023-06-05T08:01:13.746Z,868.00
2023-06-05T08:02:14.295Z,768.00
2023-06-05T08:03:14.009Z,732.00
2023-06-05T08:04:14.159Z,741.00
2023-06-05T08:05:13.874Z,787.00
2023-06-05T08:06:13.888Z,720.00
2023-06-05T08:07:14.245Z,782.00
2023-06-05T08:08:13.913Z,717.00
2023-06-05T08:09:13.933Z,746.00
2023-06-05T08:10:13.950Z,785.00
2023-06-05T08:11:13.953Z,786.00
2023-06-05T08:12:13.957Z,790.00
2023-06-05T08:13:13.959Z,702.00
2023-06-05T08:14:13.966Z,726.00
2023-06-05T08:15:13.976Z,720.00
2023-06-05T08:16:13.979Z,729.00
2023-06-05T08:17:14.080Z,788.00
2023-06-05T08:18:13.968Z,794.00
2023-06-05T08:19:13.979Z,798.00
2023-06-05T08:20:13.955Z,810.00
2023-06-05T08:21:13.951Z,821.00
2023-06-05T08:22:14.249Z,814.00
2023-06-05T08:23:13.966Z,814.00
2023-06-05T08:24:13.965Z,826.00
2023-06-05T08:25:14.030Z,838.00
2023-06-05T08:26:14.042Z,846.00
2023-06-05T08:27:14.109Z,859.00
2023-06-05T08:28:14.140Z,871.00
2023-06-05T08:29:14.186Z,877.00
2023-06-05T08:30:14.232Z,871.00
2023-06-05T08:31:14.307Z,869.00
2023-06-05T08:32:14.368Z,873.00
2023-06-05T08:33:14.392Z,889.00
2023-06-05T08:34:14.458Z,934.00
2023-06-05T08:35:14.522Z,980.00
2023-06-05T08:36:14.616Z,989.00
2023-06-05T08:37:14.756Z,982.00
2023-06-05T08:38:14.716Z,987.00
2023-06-05T08:39:14.778Z,1010.00
2023-06-05T08:40:14.832Z,1035.00
2023-06-05T08:41:14.940Z,1045.00
2023-06-05T08:42:15.254Z,1056.00
2023-06-05T08:43:15.026Z,1061.00
2023-06-05T08:44:15.084Z,1062.00
2023-06-05T08:45:15.146Z,1064.00
2023-06-05T08:46:15.254Z,1068.00
2023-06-05T08:47:15.800Z,1010.00
2023-06-05T08:48:15.363Z,1007.00
2023-06-05T08:49:15.406Z,1003.00
2023-06-05T08:50:15.474Z,1001.00
2023-06-05T08:51:15.537Z,1007.00
2023-06-05T08:52:15.586Z,1011.00
2023-06-05T08:53:17.809Z,1010.00
2023-06-05T08:54:15.640Z,1008.00
2023-06-05T08:55:15.664Z,1011.00
2023-06-05T08:56:15.619Z,1009.00
2023-06-05T08:57:15.620Z,1008.00
2023-06-05T08:58:15.629Z,1002.00
2023-06-05T08:59:15.622Z,998.00
2023-06-05T09:00:15.591Z,1006.00
2023-06-05T09:01:15.632Z,1009.00
2023-06-05T09:02:15.768Z,1010.00
2023-06-05T09:03:15.593Z,917.00
2023-06-05T09:04:15.576Z,958.00
2023-06-05T09:05:15.557Z,985.00
2023-06-05T09:06:15.584Z,994.00
2023-06-05T09:07:15.773Z,991.00
2023-06-05T09:08:15.550Z,978.00
2023-06-05T09:09:15.537Z,974.00
2023-06-05T09:10:15.542Z,973.00
2023-06-05T09:11:15.535Z,970.00
2023-06-05T09:12:15.782Z,969.00
2023-06-05T09:13:15.504Z,969.00
2023-06-05T09:14:15.505Z,969.00
2023-06-05T09:15:15.500Z,976.00
2023-06-05T09:16:15.522Z,958.00
2023-06-05T09:17:15.517Z,471.00
2023-06-05T09:18:15.522Z,549.00
2023-06-05T09:19:15.492Z,728.00
2023-06-05T09:20:15.482Z,729.00
2023-06-05T09:21:15.475Z,764.00
2023-06-05T09:22:15.814Z,777.00
2023-06-05T09:23:25.150Z,783.00
2023-06-05T09:24:16.555Z,805.00
2023-06-05T09:25:15.442Z,832.00
2023-06-05T09:26:15.424Z,835.00
2023-06-05T09:27:15.429Z,640.00
2023-06-05T09:28:15.436Z,450.00
2023-06-05T09:29:15.417Z,491.00
2023-06-05T09:30:15.412Z,487.00
2023-06-05T09:31:15.421Z,476.00
2023-06-05T09:32:15.802Z,495.00
2023-06-05T09:33:15.382Z,505.00
2023-06-05T09:34:15.389Z,750.00
2023-06-05T09:35:15.370Z,762.00
2023-06-05T09:36:15.403Z,765.00
2023-06-05T09:37:15.806Z,772.00
2023-06-05T09:38:15.424Z,777.00
2023-06-05T09:39:15.450Z,787.00
2023-06-05T09:40:15.430Z,792.00
2023-06-05T09:41:15.439Z,798.00
2023-06-05T09:42:15.804Z,807.00
2023-06-05T09:43:15.432Z,823.00
2023-06-05T09:44:15.466Z,825.00
2023-06-05T09:45:15.518Z,952.00
2023-06-05T09:46:15.612Z,915.00
2023-06-05T09:47:15.712Z,909.00
2023-06-05T09:48:15.750Z,914.00
2023-06-05T09:49:15.725Z,948.00
2023-06-05T09:50:15.837Z,939.00
2023-06-05T09:51:15.880Z,935.00
2023-06-05T09:52:15.920Z,933.00
2023-06-05T09:53:15.937Z,934.00
2023-06-05T09:54:15.983Z,939.00
2023-06-05T09:55:16.044Z,935.00
2023-06-05T09:56:16.105Z,939.00
2023-06-05T09:57:16.365Z,938.00
2023-06-05T09:58:16.185Z,941.00
2023-06-05T09:59:16.229Z,942.00
2023-06-05T10:00:17.199Z,945.00
2023-06-05T10:01:16.351Z,943.00
2023-06-05T10:02:16.337Z,935.00
2023-06-05T10:03:16.399Z,917.00
2023-06-05T10:04:16.476Z,852.00
2023-06-05T10:05:16.479Z,871.00
2023-06-05T10:06:19.955Z,857.00
2023-06-05T10:07:16.543Z,868.00
2023-06-05T10:08:16.534Z,900.00
2023-06-05T10:09:16.509Z,908.00
2023-06-05T10:10:16.538Z,911.00
2023-06-05T10:11:16.510Z,906.00
2023-06-05T10:12:16.502Z,866.00
2023-06-05T10:13:18.769Z,869.00
2023-06-05T10:14:16.487Z,916.00
2023-06-05T10:15:16.482Z,932.00
2023-06-05T10:16:25.576Z,930.00
2023-06-05T10:17:17.502Z,930.00
2023-06-05T10:18:16.478Z,927.00
2023-06-05T10:19:16.450Z,923.00
2023-06-05T10:20:17.405Z,929.00
2023-06-05T10:21:16.428Z,931.00
2023-06-05T10:22:16.848Z,655.00
2023-06-05T10:23:16.411Z,560.00
2023-06-05T10:24:16.445Z,533.00
2023-06-05T10:25:16.410Z,448.00
2023-06-05T10:26:16.386Z,536.00
2023-06-05T10:27:16.381Z,573.00
2023-06-05T10:28:16.375Z,610.00
2023-06-05T10:29:16.380Z,696.00
2023-06-05T10:30:16.482Z,689.00
2023-06-05T10:31:16.400Z,687.00
2023-06-05T10:32:16.401Z,733.00
2023-06-05T10:33:16.339Z,576.00
2023-06-05T10:34:16.348Z,717.00
2023-06-05T10:35:16.329Z,722.00
2023-06-05T10:36:16.317Z,724.00
2023-06-05T10:37:16.313Z,754.00
2023-06-05T10:38:16.303Z,769.00
2023-06-05T10:39:16.306Z,770.00
2023-06-05T10:40:16.311Z,775.00
2023-06-05T10:41:16.302Z,786.00
2023-06-05T10:42:16.284Z,794.00
2023-06-05T10:43:16.289Z,806.00
2023-06-05T10:44:16.284Z,822.00
2023-06-05T10:45:16.371Z,830.00
2023-06-05T10:46:16.536Z,837.00
2023-06-05T10:47:16.305Z,838.00
2023-06-05T10:48:16.262Z,834.00
2023-06-05T10:49:16.251Z,839.00
2023-06-05T10:50:16.246Z,848.00
2023-06-05T10:51:16.249Z,849.00
2023-06-05T10:52:16.219Z,854.00
2023-06-05T10:53:16.224Z,860.00
2023-06-05T10:54:16.219Z,862.00
2023-06-05T10:55:16.227Z,865.00
2023-06-05T10:56:16.204Z,864.00
2023-06-05T10:57:16.333Z,866.00
2023-06-05T10:58:16.508Z,871.00
2023-06-05T10:59:16.176Z,873.00
2023-06-05T11:00:16.176Z,866.00
2023-06-05T11:01:16.185Z,867.00
2023-06-05T11:02:16.344Z,873.00
2023-06-05T11:03:16.183Z,885.00
2023-06-05T11:04:16.181Z,895.00
2023-06-05T11:05:16.191Z,896.00
2023-06-05T11:06:16.125Z,901.00
2023-06-05T11:07:16.333Z,905.00
2023-06-05T11:08:16.146Z,910.00
2023-06-05T11:09:16.097Z,824.00
2023-06-05T11:10:16.108Z,885.00
2023-06-05T11:11:16.140Z,870.00
2023-06-05T11:12:16.199Z,853.00
2023-06-05T11:13:16.207Z,843.00
2023-06-05T11:14:16.234Z,838.00
2023-06-05T11:15:16.464Z,879.00
2023-06-05T11:16:16.378Z,886.00
2023-06-05T11:17:17.622Z,808.00
2023-06-05T11:18:16.427Z,791.00
2023-06-05T11:19:16.457Z,690.00
2023-06-05T11:20:16.544Z,673.00
2023-06-05T11:21:16.567Z,594.00
2023-06-05T11:22:16.832Z,593.00
2023-06-05T11:23:16.672Z,590.00
2023-06-05T11:24:16.736Z,552.00
2023-06-05T11:25:16.860Z,528.00
2023-06-05T11:26:16.851Z,519.00
2023-06-05T11:27:16.841Z,516.00
2023-06-05T11:28:16.837Z,510.00
2023-06-05T11:29:16.926Z,502.00
2023-06-05T11:30:19.723Z,500.00
2023-06-05T11:31:17.869Z,471.00
2023-06-05T11:32:16.868Z,471.00
2023-06-05T11:33:17.179Z,463.00
2023-06-05T11:34:16.817Z,453.00
2023-06-05T11:35:16.809Z,450.00
2023-06-05T11:36:16.810Z,441.00
2023-06-05T11:37:16.786Z,436.00
2023-06-05T11:38:17.811Z,431.00
2023-06-05T11:39:16.773Z,427.00
2023-06-05T11:40:16.789Z,420.00
2023-06-05T11:41:16.765Z,416.00
2023-06-05T11:42:16.743Z,414.00
2023-06-05T11:43:16.758Z,410.00
2023-06-05T11:44:16.728Z,407.00
2023-06-05T11:45:16.734Z,404.00
2023-06-05T11:46:16.785Z,400.00
2023-06-05T11:47:16.761Z,398.00
2023-06-05T11:48:16.721Z,402.00
2023-06-05T11:49:16.690Z,400.00
2023-06-05T11:50:16.699Z,397.00
2023-06-05T11:51:16.686Z,390.00
2023-06-05T11:52:16.677Z,389.00
2023-06-05T11:53:16.666Z,382.00
2023-06-05T11:54:16.655Z,380.00
2023-06-05T11:55:16.732Z,378.00
2023-06-05T11:56:16.716Z,375.00
2023-06-05T11:57:16.648Z,371.00
2023-06-05T11:58:16.635Z,374.00
2023-06-05T11:59:16.639Z,373.00
2023-06-05T12:00:16.648Z,375.00
2023-06-05T12:01:16.622Z,374.00
2023-06-05T12:02:16.680Z,381.00
2023-06-05T12:03:16.880Z,384.00
2023-06-05T12:04:17.597Z,399.00
2023-06-05T12:05:16.602Z,407.00
2023-06-05T12:06:16.594Z,427.00
2023-06-05T12:07:16.596Z,465.00
2023-06-05T12:08:16.562Z,472.00
2023-06-05T12:09:16.548Z,467.00
2023-06-05T12:10:16.574Z,474.00
2023-06-05T12:11:16.533Z,484.00
2023-06-05T12:12:16.538Z,519.00
2023-06-05T12:13:16.891Z,515.00
2023-06-05T12:14:16.530Z,556.00
2023-06-05T12:15:16.534Z,584.00
2023-06-05T12:16:16.576Z,579.00
2023-06-05T12:17:16.519Z,567.00
2023-06-05T12:18:16.506Z,605.00
2023-06-05T12:19:16.836Z,614.00
2023-06-05T12:20:16.487Z,626.00
2023-06-05T12:21:16.480Z,636.00
2023-06-05T12:22:16.474Z,649.00
2023-06-05T12:23:16.483Z,663.00
2023-06-05T12:24:16.482Z,701.00
2023-06-05T12:25:21.089Z,677.00
2023-06-05T12:26:17.431Z,663.00
2023-06-05T12:27:16.437Z,689.00
2023-06-05T12:28:16.420Z,708.00